Time;durP1;ratioP1;P1;durP2;ratioP2;P2;SDS_P1;SDS_P2;PMS_P1;PMS_P2;Temp;Humidity;BMP_temperature;BMP_pressure;BME280_temperature;BME280_humidity;BME280_pressure;Samples;Min_cycle;Max_cycle;Signal;HPM_P1;HPM_P2
2023/11/20 00:01:54;;;;;;;26.00;15.43;;;;;;;0.35;100.00;99374.83;1719932;83;25617;-47
2023/11/20 00:04:21;;;;;;;28.73;16.67;;;;;;;0.33;100.00;99370.31;1758973;81;27403;-47
2023/11/20 00:06:49;;;;;;;27.37;16.95;;;;;;;0.34;100.00;99365.24;1699213;83;25785;-47
2023/11/20 00:09:18;;;;;;;28.32;15.98;;;;;;;0.35;100.00;99376.16;1719959;83;25586;-46
2023/11/20 00:11:45;;;;;;;25.25;15.40;;;;;;;0.36;100.00;99367.13;1758724;81;25532;-47
2023/11/20 00:14:15;;;;;;;26.55;15.30;;;;;;;0.35;100.00;99358.88;1719966;83;25696;-48
2023/11/20 00:16:44;;;;;;;26.93;16.57;;;;;;;0.36;100.00;99360.48;1720179;83;28342;-50
2023/11/20 00:19:14;;;;;;;25.60;15.38;;;;;;;0.36;100.00;99359.94;1758572;81;25748;-49
2023/11/20 00:21:43;;;;;;;26.60;15.45;;;;;;;0.35;100.00;99362.33;1719985;83;25497;-48
2023/11/20 00:24:12;;;;;;;24.20;14.90;;;;;;;0.34;100.00;99358.59;1723624;83;35106;-47
2023/11/20 00:26:38;;;;;;;23.12;14.73;;;;;;;0.32;100.00;99359.39;1758632;81;25446;-47
2023/11/20 00:29:05;;;;;;;26.90;15.93;;;;;;;0.31;100.00;99359.94;1719854;83;27391;-46
2023/11/20 00:31:36;;;;;;;24.32;15.90;;;;;;;0.29;100.00;99349.27;1719838;83;25556;-47
2023/11/20 00:34:04;;;;;;;26.85;15.75;;;;;;;0.29;100.00;99359.41;1758628;81;25459;-46
2023/11/20 00:36:30;;;;;;;26.85;16.62;;;;;;;0.29;100.00;99348.77;1719891;83;25630;-47
2023/11/20 00:39:01;;;;;;;23.60;14.90;;;;;;;0.29;100.00;99346.11;1720176;83;25663;-47
2023/11/20 00:41:31;;;;;;;26.68;15.23;;;;;;;0.30;100.00;99350.88;1758740;81;27498;-46
2023/11/20 00:43:56;;;;;;;25.30;15.28;;;;;;;0.30;100.00;99345.02;1714220;83;25598;-46
2023/11/20 00:46:23;;;;;;;26.77;16.55;;;;;;;0.31;100.00;99351.16;1709149;84;25490;-46
2023/11/20 00:48:49;;;;;;;24.15;15.53;;;;;;;0.31;100.00;99355.94;1683797;85;25668;-48
2023/11/20 00:51:15;;;;;;;24.80;15.80;;;;;;;0.35;100.00;99358.88;1710419;83;25687;-49
2023/11/20 00:53:42;;;;;;;26.27;15.68;;;;;;;0.37;100.00;99364.72;1709095;84;27627;-50
2023/11/20 00:56:08;;;;;;;25.10;15.32;;;;;;;0.36;100.00;99367.92;1683836;85;25600;-51
2023/11/20 00:58:35;;;;;;;23.80;14.38;;;;;;;0.38;100.00;99369.53;1711767;83;25556;-47
2023/11/20 01:01:01;;;;;;;27.35;16.05;;;;;;;0.37;100.00;99364.72;1709118;83;25873;-48
2023/11/20 01:03:32;;;;;;;25.25;14.43;;;;;;;0.39;100.00;99375.10;1683798;85;25521;-47
2023/11/20 01:06:04;;;;;;;27.07;14.55;;;;;;;0.39;100.00;99372.44;1711720;83;28335;-48
2023/11/20 01:08:28;;;;;;;24.90;15.18;;;;;;;0.39;100.00;99363.13;1708552;83;25587;-48
2023/11/20 01:10:57;;;;;;;25.40;15.17;;;;;;;0.41;100.00;99368.98;1684086;85;25627;-48
2023/11/20 01:13:23;;;;;;;25.12;15.18;;;;;;;0.41;100.00;99371.64;1711775;83;25574;-50
2023/11/20 01:15:52;;;;;;;24.80;15.45;;;;;;;0.40;100.00;99364.20;1709439;83;25426;-50
2023/11/20 01:18:19;;;;;;;26.00;14.80;;;;;;;0.40;100.00;99352.77;1684103;85;27724;-49
2023/11/20 01:20:47;;;;;;;23.90;14.23;;;;;;;0.40;100.00;99352.77;1711801;83;25953;-48
2023/11/20 01:23:13;;;;;;;23.57;14.83;;;;;;;0.34;100.00;99336.80;1709231;83;25634;-49
2023/11/20 01:25:42;;;;;;;24.52;14.43;;;;;;;0.38;100.00;99343.72;1687354;85;25617;-49
2023/11/20 01:28:10;;;;;;;28.73;15.53;;;;;;;0.39;100.00;99343.97;1711980;83;25386;-49
2023/11/20 01:30:37;;;;;;;24.77;14.83;;;;;;;0.39;100.00;99352.48;1709276;83;27337;-49
2023/11/20 01:33:07;;;;;;;24.07;14.98;;;;;;;0.38;100.00;99353.03;1683952;85;25601;-49
2023/11/20 01:35:33;;;;;;;24.70;14.53;;;;;;;0.38;100.00;99353.03;1711829;83;25398;-48
2023/11/20 01:38:02;;;;;;;25.60;15.85;;;;;;;0.38;100.00;99352.23;1709212;84;25669;-48
2023/11/20 01:40:29;;;;;;;23.30;14.65;;;;;;;0.38;100.00;99346.37;1684112;85;25569;-50
2023/11/20 01:42:55;;;;;;;25.40;15.58;;;;;;;0.41;100.00;99349.03;1711779;83;27335;-48
2023/11/20 01:45:26;;;;;;;23.83;14.60;;;;;;;0.41;100.00;99352.50;1719126;83;25510;-49
2023/11/20 01:47:54;;;;;;;24.52;14.58;;;;;;;0.42;100.00;99351.42;1720166;83;25475;-50
2023/11/20 01:50:25;;;;;;;21.37;14.43;;;;;;;0.41;100.00;99353.84;1759009;81;25592;-48
2023/11/20 01:52:53;;;;;;;25.27;15.13;;;;;;;0.43;100.00;99357.56;1720088;83;25630;-48
2023/11/20 01:55:21;;;;;;;23.40;15.50;;;;;;;0.44;100.00;99359.14;1720085;83;27196;-47
2023/11/20 01:57:51;;;;;;;26.85;15.58;;;;;;;0.46;100.00;99362.34;1758624;81;25463;-48
2023/11/20 02:00:22;;;;;;;23.83;15.28;;;;;;;0.46;100.00;99354.35;1720147;83;25602;-48
2023/11/20 02:02:51;;;;;;;23.77;13.78;;;;;;;0.46;100.00;99351.69;1723509;83;25580;-48
2023/11/20 02:05:17;;;;;;;23.15;14.75;;;;;;;0.46;100.00;99346.37;1758800;81;25609;-47
2023/11/20 02:07:44;;;;;;;25.17;15.15;;;;;;;0.45;100.00;99345.58;1720087;82;27186;-48
2023/11/20 02:10:13;;;;;;;24.40;14.18;;;;;;;0.43;100.00;99346.92;1719839;83;25971;-48
2023/11/20 02:12:41;;;;;;;24.77;14.10;;;;;;;0.43;100.00;99350.38;1758832;81;30415;-50
2023/11/20 02:15:11;;;;;;;27.02;15.13;;;;;;;0.45;100.00;99347.45;1719971;82;25493;-48
2023/11/20 02:17:37;;;;;;;23.98;14.55;;;;;;;0.47;100.00;99343.98;1719880;83;25458;-48
2023/11/20 02:20:07;;;;;;;23.65;14.90;;;;;;;0.47;100.00;99354.63;1758660;81;27706;-49
2023/11/20 02:22:33;;;;;;;24.45;14.78;;;;;;;0.47;100.00;99351.43;1699338;83;25513;-49
2023/11/20 02:25:00;;;;;;;23.50;14.60;;;;;;;0.47;100.00;99346.65;1723499;83;25580;-48
2023/11/20 02:28:04;;;;;;;24.47;15.38;;;;;;;0.48;100.00;99346.92;1758615;81;25696;-49
2023/11/20 02:30:32;;;;;;;23.90;13.35;;;;;;;0.48;100.00;99356.23;1718955;83;25394;-49
2023/11/20 02:32:59;;;;;;;25.32;14.28;;;;;;;0.49;100.00;99347.17;1720004;83;27262;-48
2023/11/20 02:35:25;;;;;;;22.70;14.00;;;;;;;0.50;100.00;99340.80;1758593;81;25640;-48
2023/11/20 02:37:53;;;;;;;26.05;14.15;;;;;;;0.49;100.00;99346.64;1720049;83;25401;-49
2023/11/20 02:40:22;;;;;;;23.85;15.05;;;;;;;0.49;100.00;99345.84;1719987;83;25467;-48
2023/11/20 02:42:49;;;;;;;24.50;14.27;;;;;;;0.51;100.00;99345.86;1758896;81;25470;-50
2023/11/20 02:45:17;;;;;;;23.85;14.35;;;;;;;0.50;100.00;99344.25;1724736;83;27513;-48
2023/11/20 02:47:44;;;;;;;22.10;13.93;;;;;;;0.50;100.00;99332.82;1726581;83;25488;-48
2023/11/20 02:50:10;;;;;;;23.52;14.30;;;;;;;0.50;100.00;99337.60;1726648;83;25610;-49
2023/11/20 02:52:37;;;;;;;18.95;12.33;;;;;;;0.52;100.00;99332.02;1726616;82;25492;-49
2023/11/20 02:55:06;;;;;;;22.60;14.20;;;;;;;0.53;100.00;99334.95;1726746;82;25395;-48
2023/11/20 02:57:33;;;;;;;22.13;13.62;;;;;;;0.53;100.00;99337.62;1718054;81;27275;-49
2023/11/20 03:00:02;;;;;;;22.50;14.07;;;;;;;0.53;100.00;99339.73;1726592;83;25626;-48
2023/11/20 03:02:28;;;;;;;19.07;13.30;;;;;;;0.55;100.00;99342.14;1717736;83;25429;-49
2023/11/20 03:04:56;;;;;;;23.35;13.83;;;;;;;0.55;100.00;99344.80;1726629;83;26298;-48
2023/11/20 03:07:23;;;;;;;21.95;13.83;;;;;;;0.54;100.00;99337.86;1726795;82;25391;-49
2023/11/20 03:09:49;;;;;;;21.23;13.40;;;;;;;0.55;100.00;99346.92;1726667;83;27404;-49
2023/11/20 03:12:17;;;;;;;20.27;12.10;;;;;;;0.55;100.00;99342.14;1726565;83;25376;-52
2023/11/20 03:14:45;;;;;;;19.27;13.13;;;;;;;0.55;100.00;99339.48;1726653;81;25392;-49
2023/11/20 03:17:12;;;;;;;22.17;12.73;;;;;;;0.57;100.00;99332.56;1726604;83;26093;-50
2023/11/20 03:19:40;;;;;;;20.60;12.75;;;;;;;0.61;100.00;99330.95;1726708;83;25536;-52
2023/11/20 03:22:09;;;;;;;21.27;13.53;;;;;;;0.61;100.00;99333.61;1726896;83;27356;-50
2023/11/20 03:24:36;;;;;;;19.67;13.07;;;;;;;0.60;100.00;99325.38;1726837;82;26069;-51
2023/11/20 03:27:05;;;;;;;23.60;14.40;;;;;;;0.61;100.00;99330.41;1726654;83;25571;-50
2023/11/20 03:29:33;;;;;;;;;;;;;;;0.61;100.00;99325.09;1729241;83;26004;-50
2023/11/20 03:32:00;;;;;;;18.95;12.37;;;;;;;0.63;100.00;99321.65;1734778;82;25419;-50
2023/11/20 03:34:28;;;;;;;21.07;13.48;;;;;;;0.61;100.00;99321.64;1752426;81;27346;-53
2023/11/20 03:36:56;;;;;;;23.38;14.38;;;;;;;0.61;100.00;99326.42;1726687;83;25913;-50
2023/11/20 03:39:27;;;;;;;20.10;11.83;;;;;;;0.62;100.00;99326.70;1726693;82;25629;-49
2023/11/20 03:41:55;;;;;;;19.52;13.10;;;;;;;0.60;100.00;99330.16;1726686;83;25607;-49
2023/11/20 03:44:22;;;;;;;19.70;12.47;;;;;;;0.59;100.00;99327.22;1723811;83;25555;-49
2023/11/20 03:46:48;;;;;;;18.85;12.88;;;;;;;0.58;100.00;99324.31;1713906;83;27462;-51
2023/11/20 03:49:17;;;;;;;19.52;12.15;;;;;;;0.58;100.00;99322.16;1713936;83;25471;-50
2023/11/20 03:51:44;;;;;;;18.57;11.77;;;;;;;0.56;100.00;99325.09;1714289;83;25610;-53
2023/11/20 03:54:12;;;;;;;18.65;11.85;;;;;;;0.58;100.00;99311.00;1713996;83;25673;-49
2023/11/20 03:56:41;;;;;;;20.48;12.88;;;;;;;0.58;100.00;99312.84;1714194;83;25524;-50
2023/11/20 03:59:07;;;;;;;19.97;12.17;;;;;;;0.59;100.00;99311.80;1714268;83;27958;-51
2023/11/20 04:01:34;;;;;;;24.80;12.37;;;;;;;0.59;100.00;99311.25;1713920;83;25706;-49
2023/11/20 04:04:01;;;;;;;19.60;12.85;;;;;;;0.61;100.00;99308.33;1713999;83;25449;-49
2023/11/20 04:06:29;;;;;;;19.52;12.25;;;;;;;0.59;100.00;99311.25;1713942;83;25739;-49
2023/11/20 04:08:55;;;;;;;19.15;11.95;;;;;;;0.61;100.00;99305.67;1714011;83;25393;-50
2023/11/20 04:11:22;;;;;;;19.52;13.03;;;;;;;0.61;100.00;99299.80;1714014;83;27200;-49
2023/11/20 04:13:48;;;;;;;20.10;13.10;;;;;;;0.61;100.00;99301.13;1713889;83;25555;-49
2023/11/20 04:16:16;;;;;;;18.02;11.68;;;;;;;0.59;100.00;99297.16;1692585;83;25628;-50
2023/11/20 04:18:45;;;;;;;18.82;11.68;;;;;;;0.59;100.00;99299.81;1713956;83;25680;-50
2023/11/20 04:21:13;;;;;;;13.38;8.40;;;;;;;0.58;100.00;99299.03;1714136;83;25462;-50
2023/11/20 04:23:40;;;;;;;20.50;11.70;;;;;;;0.58;100.00;99300.87;1714253;83;27475;-50
2023/11/20 04:26:10;;;;;;;20.65;12.07;;;;;;;0.57;100.00;99296.09;1714101;83;26017;-50
2023/11/20 04:28:37;;;;;;;17.50;12.43;;;;;;;0.59;100.00;99291.84;1714010;83;25636;-51
2023/11/20 04:31:05;;;;;;;19.85;12.18;;;;;;;0.58;100.00;99283.58;1714005;83;25573;-50
2023/11/20 04:33:34;;;;;;;19.55;12.65;;;;;;;0.58;100.00;99291.05;1714015;83;25461;-50
2023/11/20 04:36:02;;;;;;;13.53;8.65;;;;;;;0.56;100.00;99285.17;1714257;83;28146;-51
2023/11/20 04:38:32;;;;;;;18.70;11.45;;;;;;;0.59;100.00;99285.19;1714074;83;25239;-50
2023/11/20 04:40:59;;;;;;;18.80;11.88;;;;;;;0.58;100.00;99282.24;1714076;83;25453;-50
2023/11/20 04:43:27;;;;;;;16.65;10.72;;;;;;;0.59;100.00;99289.17;1713974;83;25398;-49
2023/11/20 04:45:53;;;;;;;18.35;11.00;;;;;;;0.60;100.00;99290.78;1715653;82;25554;-51
2023/11/20 04:48:20;;;;;;;18.70;11.57;;;;;;;0.60;100.00;99293.44;1716458;83;28306;-50
2023/11/20 04:50:46;;;;;;;16.10;10.55;;;;;;;0.61;100.00;99291.03;1716392;83;25426;-50
2023/11/20 04:53:13;;;;;;;18.17;12.13;;;;;;;0.59;100.00;99298.48;1716546;83;25526;-50
2023/11/20 04:55:40;;;;;;;17.02;11.25;;;;;;;0.59;100.00;99293.95;1716421;83;26364;-50
2023/11/20 04:58:06;;;;;;;18.05;10.98;;;;;;;0.60;100.00;99292.91;1716556;83;25400;-50
2023/11/20 05:00:34;;;;;;;17.05;11.25;;;;;;;0.60;100.00;99292.11;1695994;83;27439;-50
2023/11/20 05:03:01;;;;;;;18.65;10.93;;;;;;;0.62;100.00;99291.30;1716356;83;25440;-49
2023/11/20 05:05:27;;;;;;;18.90;12.07;;;;;;;0.61;100.00;99290.48;1716408;83;25597;-52
2023/11/20 05:07:54;;;;;;;15.43;11.50;;;;;;;0.63;100.00;99300.87;1716440;83;26101;-51
2023/11/20 05:10:21;;;;;;;16.25;10.95;;;;;;;0.61;100.00;99294.48;1716468;83;25570;-51
2023/11/20 05:12:47;;;;;;;16.90;10.05;;;;;;;0.62;100.00;99300.63;1716456;83;27376;-51
2023/11/20 05:15:13;;;;;;;16.30;10.50;;;;;;;0.62;100.00;99307.28;1716371;83;25441;-51
2023/11/20 05:17:40;;;;;;;15.23;9.93;;;;;;;0.61;100.00;99310.45;1716456;83;25440;-53
2023/11/20 05:20:10;;;;;;;14.58;9.28;;;;;;;0.61;100.00;99314.98;1716354;83;25468;-52
2023/11/20 05:22:39;;;;;;;15.85;10.35;;;;;;;0.60;100.00;99318.73;1686285;85;25475;-51
2023/11/20 05:25:08;;;;;;;13.48;9.78;;;;;;;0.60;100.00;99312.08;1716412;83;27778;-52
2023/11/20 05:27:35;;;;;;;;;;;;;;;0.61;100.00;99318.97;1688663;85;25419;-52
2023/11/20 05:30:01;;;;;;;16.25;11.25;;;;;;;0.61;100.00;99325.09;1716456;83;25709;-54
2023/11/20 05:32:29;;;;;;;13.35;9.33;;;;;;;0.61;100.00;99314.98;1716369;83;26521;-51
2023/11/20 05:34:56;;;;;;;15.80;10.25;;;;;;;0.60;100.00;99313.41;1716421;83;25456;-51
2023/11/20 05:37:23;;;;;;;13.80;9.25;;;;;;;0.61;100.00;99318.43;1716424;83;27325;-53
2023/11/20 05:39:53;;;;;;;14.18;9.08;;;;;;;0.60;100.00;99316.86;1716368;83;25598;-54
2023/11/20 05:42:19;;;;;;;15.80;9.55;;;;;;;0.60;100.00;99314.19;1716450;83;25156;-51
2023/11/20 05:44:47;;;;;;;14.38;9.15;;;;;;;0.60;100.00;99306.20;1686476;84;26186;-54
2023/11/20 05:47:16;;;;;;;12.90;9.18;;;;;;;0.59;100.00;99309.92;1720087;83;25449;-55
2023/11/20 05:49:43;;;;;;;11.88;8.50;;;;;;;0.61;100.00;99311.78;1759058;81;27326;-51
2023/11/20 05:52:11;;;;;;;13.50;8.98;;;;;;;0.62;100.00;99313.39;1719922;83;25562;-54
2023/11/20 05:54:37;;;;;;;14.33;8.48;;;;;;;0.61;100.00;99311.78;1758696;81;25541;-51
2023/11/20 05:57:06;;;;;;;14.10;8.85;;;;;;;0.63;100.00;99320.31;1719985;83;26326;-54
2023/11/20 05:59:33;;;;;;;12.33;8.10;;;;;;;0.64;100.00;99318.45;1758799;81;25393;-54
2023/11/20 06:02:00;;;;;;;14.30;9.38;;;;;;;0.66;100.00;99323.75;1689625;84;27277;-54
2023/11/20 06:04:27;;;;;;;14.15;9.35;;;;;;;0.67;100.00;99324.03;1719926;83;25540;-51
2023/11/20 06:06:56;;;;;;;15.98;9.23;;;;;;;0.66;100.00;99321.09;1758718;81;25625;-51
2023/11/20 06:09:22;;;;;;;16.12;9.93;;;;;;;0.67;100.00;99329.90;1689685;84;25625;-51
2023/11/20 06:11:51;;;;;;;12.27;8.27;;;;;;;0.67;100.00;99331.23;1720232;83;25573;-52
2023/11/20 06:14:17;;;;;;;11.57;7.80;;;;;;;0.67;100.00;99336.01;1758660;81;27699;-53
2023/11/20 06:16:49;;;;;;;14.87;8.03;;;;;;;0.66;100.00;99337.60;1689635;84;25649;-51
2023/11/20 06:19:18;;;;;;;14.30;8.25;;;;;;;0.68;100.00;99339.46;1720023;83;25396;-50
2023/11/20 06:21:47;;;;;;;11.33;7.70;;;;;;;0.68;100.00;99336.28;1758610;81;25626;-53
2023/11/20 06:24:16;;;;;;;10.85;7.17;;;;;;;0.68;100.00;99340.28;1689499;84;25464;-51
2023/11/20 06:26:44;;;;;;;13.50;7.50;;;;;;;0.69;100.00;99345.06;1720102;83;27955;-55
2023/11/20 06:29:13;;;;;;;11.15;8.00;;;;;;;0.69;100.00;99347.18;1758585;81;25610;-53
2023/11/20 06:31:41;;;;;;;10.95;8.20;;;;;;;0.68;100.00;99344.27;1669762;84;25661;-51
2023/11/20 06:34:08;;;;;;;11.38;7.80;;;;;;;0.68;100.00;99348.27;1719925;83;26011;-53
2023/11/20 06:36:38;;;;;;;9.80;6.97;;;;;;;0.70;100.00;99353.33;1758781;81;25391;-52
2023/11/20 06:39:07;;;;;;;10.50;7.72;;;;;;;0.70;100.00;99350.12;1720134;83;27033;-52
2023/11/20 06:41:34;;;;;;;14.28;7.97;;;;;;;0.73;100.00;99358.09;1758696;81;25625;-52
2023/11/20 06:44:05;;;;;;;12.10;7.87;;;;;;;0.73;100.00;99352.77;1719939;83;25611;-52
2023/11/20 06:46:33;;;;;;;11.65;7.90;;;;;;;0.73;100.00;99353.59;1754610;81;25629;-54
2023/11/20 06:49:00;;;;;;;11.47;7.67;;;;;;;0.74;100.00;99356.50;1753310;81;25441;-54
2023/11/20 06:51:26;;;;;;;10.80;7.67;;;;;;;0.78;100.00;99363.95;1753021;81;27683;-53
2023/11/20 06:53:55;;;;;;;13.30;7.00;;;;;;;0.77;100.00;99367.16;1752948;81;25536;-52
2023/11/20 06:56:23;;;;;;;11.63;8.03;;;;;;;0.78;100.00;99362.09;1668752;83;25599;-52
2023/11/20 06:58:52;;;;;;;11.35;7.28;;;;;;;0.78;100.00;99365.28;1696733;84;25944;-52
2023/11/20 07:01:18;;;;;;;11.15;7.47;;;;;;;0.78;100.00;99366.08;1712307;83;25620;-52
2023/11/20 07:03:44;;;;;;;11.68;7.50;;;;;;;0.79;100.00;99371.68;1696767;84;27339;-52
2023/11/20 07:06:17;;;;;;;11.85;7.42;;;;;;;0.79;100.00;99369.56;1712210;83;25575;-53
2023/11/20 07:08:45;;;;;;;11.20;6.67;;;;;;;0.79;100.00;99365.56;1696859;84;25597;-56
2023/11/20 07:11:14;;;;;;;11.43;7.22;;;;;;;0.82;100.00;99369.82;1712204;83;26581;-52
2023/11/20 07:13:41;;;;;;;10.45;6.97;;;;;;;0.85;100.00;99376.46;1697070;84;31283;-54
2023/11/20 07:16:12;;;;;;;10.78;7.00;;;;;;;0.88;100.00;99379.93;1712320;83;27331;-53
2023/11/20 07:18:38;;;;;;;12.20;7.28;;;;;;;0.88;100.00;99379.39;1682108;84;25527;-55
2023/11/20 07:21:08;;;;;;;10.40;7.58;;;;;;;0.87;100.00;99384.47;1696795;84;25620;-51
2023/11/20 07:23:37;;;;;;;13.05;7.50;;;;;;;0.88;100.00;99383.37;1683593;85;26684;-52
2023/11/20 07:26:05;;;;;;;11.97;7.80;;;;;;;0.87;100.00;99383.13;1668722;86;25423;-51
2023/11/20 07:28:33;;;;;;;11.30;7.37;;;;;;;0.89;100.00;99382.33;1683833;85;27343;-51
2023/11/20 07:31:02;;;;;;;10.78;6.72;;;;;;;0.91;100.00;99385.52;1668647;86;25400;-52
2023/11/20 07:33:29;;;;;;;10.40;6.95;;;;;;;0.91;100.00;99385.52;1664125;85;25828;-51
2023/11/20 07:36:00;;;;;;;12.77;7.60;;;;;;;0.93;100.00;99386.58;1668924;86;26613;-53
2023/11/20 07:38:28;;;;;;;9.88;7.00;;;;;;;0.95;100.00;99389.77;1683652;84;25597;-52
2023/11/20 07:41:02;;;;;;;11.80;7.07;;;;;;;0.96;100.00;99388.72;1668919;86;27361;-54
2023/11/20 07:43:25;;;;;;;9.58;6.87;;;;;;;0.98;100.00;99395.11;1682729;85;25639;-53
2023/11/20 07:45:54;;;;;;;10.23;7.20;;;;;;;1.00;100.00;99395.64;1683802;83;25568;-55
2023/11/20 07:48:22;;;;;;;7.07;4.73;;;;;;;1.00;100.00;99396.42;1723287;83;26585;-55
2023/11/20 07:50:52;;;;;;;8.48;6.10;;;;;;;1.00;100.00;99395.64;1723039;83;25646;-55
2023/11/20 07:53:18;;;;;;;;;;;;;;;1.02;100.00;99393.50;1725615;83;27910;-53
2023/11/20 07:55:44;;;;;;;10.08;6.33;;;;;;;1.02;100.00;99396.98;1722934;83;25551;-53
2023/11/20 07:58:11;;;;;;;9.33;6.45;;;;;;;1.04;100.00;99394.84;1723086;83;25410;-51
2023/11/20 08:00:38;;;;;;;9.10;6.08;;;;;;;1.07;100.00;99398.82;1722957;83;26166;-50
2023/11/20 08:03:04;;;;;;;9.00;6.47;;;;;;;1.11;100.00;99399.91;1723032;83;25646;-54
2023/11/20 08:05:32;;;;;;;8.98;6.47;;;;;;;1.14;100.00;99397.22;1722959;83;28336;-52
2023/11/20 08:07:59;;;;;;;10.43;6.72;;;;;;;1.16;100.00;99400.41;1694492;83;25666;-54
2023/11/20 08:10:25;;;;;;;8.38;5.85;;;;;;;1.18;100.00;99394.30;1723004;83;25548;-51
2023/11/20 08:12:52;;;;;;;10.30;6.40;;;;;;;1.21;100.00;99399.07;1722928;83;25974;-52
2023/11/20 08:15:18;;;;;;;8.33;6.87;;;;;;;1.22;100.00;99397.47;1723013;83;25424;-53
2023/11/20 08:17:47;;;;;;;9.33;5.95;;;;;;;1.21;100.00;99393.74;1722987;83;27705;-55
2023/11/20 08:20:18;;;;;;;10.45;6.92;;;;;;;1.26;100.00;99400.39;1723134;83;25404;-56
2023/11/20 08:22:45;;;;;;;9.23;5.72;;;;;;;1.30;100.00;99399.59;1723033;83;25467;-54
2023/11/20 08:25:14;;;;;;;9.05;6.22;;;;;;;1.35;100.00;99402.00;1722913;83;25992;-56
2023/11/20 08:27:43;;;;;;;12.50;7.35;;;;;;;1.38;100.00;99400.11;1723127;83;25597;-54
2023/11/20 08:30:13;;;;;;;9.23;6.30;;;;;;;1.41;100.00;99400.37;1723038;83;28337;-56
2023/11/20 08:32:42;;;;;;;7.80;5.72;;;;;;;1.42;100.00;99401.98;1723090;83;25586;-56
2023/11/20 08:35:11;;;;;;;9.18;6.87;;;;;;;1.45;100.00;99404.11;1723024;83;25416;-53
2023/11/20 08:37:37;;;;;;;9.20;6.22;;;;;;;1.46;100.00;99399.56;1723076;83;26656;-52
2023/11/20 08:40:09;;;;;;;9.55;6.12;;;;;;;1.45;100.00;99401.44;1723106;83;25471;-56
2023/11/20 08:42:37;;;;;;;8.98;6.30;;;;;;;1.49;100.00;99397.70;1723013;83;27974;-54
2023/11/20 08:45:07;;;;;;;9.97;6.37;;;;;;;1.52;100.00;99401.70;1723190;83;25630;-52
2023/11/20 08:47:36;;;;;;;7.58;5.92;;;;;;;1.48;100.00;99392.91;1699448;83;25626;-53
2023/11/20 08:50:08;;;;;;;9.28;5.83;;;;;;;1.51;100.00;99392.10;1728784;83;26587;-55
2023/11/20 08:52:35;;;;;;;8.85;6.37;;;;;;;1.53;100.00;99396.08;1701447;83;25437;-54
2023/11/20 08:55:01;;;;;;;9.00;6.80;;;;;;;1.56;100.00;99398.20;1728689;83;27676;-53
2023/11/20 08:57:28;;;;;;;12.63;6.97;;;;;;;1.58;100.00;99390.73;1738239;82;25460;-55
2023/11/20 08:59:54;;;;;;;10.18;6.60;;;;;;;1.62;100.00;99393.14;1723069;83;25397;-56
2023/11/20 09:02:21;;;;;;;12.23;7.08;;;;;;;1.60;100.00;99401.13;1673322;85;25564;-56
2023/11/20 09:04:50;;;;;;;13.83;8.50;;;;;;;1.54;100.00;99396.35;1723053;83;25561;-56
2023/11/20 09:07:17;;;;;;;14.73;8.83;;;;;;;1.52;100.00;99403.04;1673343;85;28053;-56
2023/11/20 09:09:43;;;;;;;14.03;8.60;;;;;;;1.51;100.00;99404.88;1703071;84;25598;-56
2023/11/20 09:12:12;;;;;;;13.38;8.08;;;;;;;1.48;100.00;99402.23;1728482;83;25613;-55
2023/11/20 09:14:38;;;;;;;13.50;8.45;;;;;;;1.46;100.00;99400.90;1702951;84;26217;-53
2023/11/20 09:17:05;;;;;;;10.70;7.05;;;;;;;1.48;100.00;99399.58;1728411;83;25483;-55
2023/11/20 09:19:32;;;;;;;10.70;6.90;;;;;;;1.49;100.00;99398.48;1703114;84;27321;-55
2023/11/20 09:21:58;;;;;;;9.30;6.50;;;;;;;1.49;100.00;99399.82;1701700;83;25464;-52
2023/11/20 09:24:27;;;;;;;9.90;6.05;;;;;;;1.52;100.00;99400.38;1673263;85;25625;-53
2023/11/20 09:26:55;;;;;;;10.70;6.60;;;;;;;1.52;100.00;99404.38;1703087;84;25642;-54
2023/11/20 09:29:21;;;;;;;10.10;6.60;;;;;;;1.52;100.00;99399.05;1728409;83;25405;-54
2023/11/20 09:31:48;;;;;;;9.15;6.62;;;;;;;1.55;100.00;99397.14;1703133;84;27666;-57
2023/11/20 09:34:15;;;;;;;8.63;6.28;;;;;;;1.61;100.00;99394.73;1728343;83;25424;-53
2023/11/20 09:36:43;;;;;;;8.70;6.28;;;;;;;1.63;100.00;99393.38;1673469;85;25612;-54
2023/11/20 09:39:13;;;;;;;7.20;5.40;;;;;;;1.67;100.00;99389.66;1703192;84;25969;-54
2023/11/20 09:41:44;;;;;;;7.90;6.12;;;;;;;1.72;100.00;99394.16;1727872;83;25462;-54
2023/11/20 09:44:13;;;;;;;8.63;5.97;;;;;;;1.74;100.00;99389.34;1703208;84;27193;-56
2023/11/20 09:46:48;;;;;;;8.50;6.12;;;;;;;1.76;100.00;99391.23;1724433;83;25440;-57
2023/11/20 09:49:23;;;;;;;7.17;5.70;;;;;;;1.77;100.00;99388.81;1697652;84;25556;-57
2023/11/20 09:51:56;;;;;;;8.70;6.33;;;;;;;1.76;100.00;99397.35;1697606;84;26146;-57
2023/11/20 09:54:26;;;;;;;7.12;6.22;;;;;;;1.73;100.00;99392.56;1668199;86;25653;-58
2023/11/20 09:56:54;;;;;;;10.88;6.70;;;;;;;1.74;100.00;99383.50;1697800;84;26932;-57
2023/11/20 09:59:21;;;;;;;10.68;7.15;;;;;;;1.78;100.00;99387.20;1697552;84;25494;-53
2023/11/20 10:01:52;;;;;;;14.55;7.83;;;;;;;1.77;100.00;99388.81;1697656;84;25635;-57
2023/11/20 10:04:23;;;;;;;12.85;7.50;;;;;;;1.75;100.00;99395.75;1668054;86;26190;-57
2023/11/20 10:06:55;;;;;;;14.13;8.20;;;;;;;1.72;100.00;99387.50;1697714;84;25578;-56
2023/11/20 10:09:23;;;;;;;15.53;8.55;;;;;;;1.71;100.00;99388.04;1667786;86;27365;-57
2023/11/20 10:11:56;;;;;;;12.03;7.30;;;;;;;1.72;100.00;99386.16;1722497;83;25610;-58
2023/11/20 10:14:22;;;;;;;12.58;8.33;;;;;;;1.69;100.00;99392.85;1723022;83;25183;-59
2023/11/20 10:16:53;;;;;;;12.00;7.30;;;;;;;1.71;100.00;99386.70;1723193;83;25634;-57
2023/11/20 10:19:20;;;;;;;9.58;6.60;;;;;;;1.73;100.00;99390.44;1723460;83;25646;-58
2023/11/20 10:21:50;;;;;;;11.68;6.85;;;;;;;1.74;100.00;99384.02;1723107;83;27882;-56
2023/11/20 10:24:19;;;;;;;7.55;6.03;;;;;;;1.72;100.00;99380.31;1722506;83;25477;-58
2023/11/20 10:26:47;;;;;;;11.70;8.88;;;;;;;1.70;100.00;99379.77;1722627;83;25465;-56
2023/11/20 10:29:16;;;;;;;9.28;6.92;;;;;;;1.71;100.00;99392.04;1722547;83;26628;-57
2023/11/20 10:31:45;;;;;;;9.63;8.13;;;;;;;1.74;100.00;99379.50;1722606;83;25619;-56
2023/11/20 10:34:14;;;;;;;13.65;9.00;;;;;;;1.77;100.00;99384.30;1722719;83;27348;-57
2023/11/20 10:36:42;;;;;;;13.70;9.83;;;;;;;1.80;100.00;99394.39;1722639;83;25635;-58
2023/11/20 10:39:15;;;;;;;13.78;9.95;;;;;;;1.83;100.00;99391.19;1722303;83;25600;-56
2023/11/20 10:41:44;;;;;;;11.48;7.90;;;;;;;1.87;100.00;99384.77;1720325;83;25824;-59
2023/11/20 10:44:10;;;;;;;10.50;7.50;;;;;;;1.91;100.00;99378.35;1722559;83;25559;-56
2023/11/20 10:46:41;;;;;;;11.00;6.78;;;;;;;1.93;100.00;99365.02;1721418;83;27705;-58
2023/11/20 10:49:12;;;;;;;11.43;7.20;;;;;;;1.90;100.00;99368.23;1700050;83;26583;-58
2023/11/20 10:51:44;;;;;;;10.70;7.70;;;;;;;1.85;100.00;99371.70;1669040;85;25574;-57
2023/11/20 10:54:14;;;;;;;14.10;8.78;;;;;;;1.85;100.00;99368.25;1728637;83;25635;-58
2023/11/20 10:56:44;;;;;;;12.47;8.35;;;;;;;1.85;100.00;99365.59;1728831;82;25419;-57
2023/11/20 10:59:13;;;;;;;11.48;8.08;;;;;;;1.85;100.00;99361.59;1728825;82;28378;-58
2023/11/20 11:01:42;;;;;;;11.75;8.53;;;;;;;1.83;100.00;99367.19;1728918;82;25448;-55
2023/11/20 11:04:13;;;;;;;12.03;8.30;;;;;;;1.83;100.00;99370.40;1677407;83;25609;-57
2023/11/20 11:06:42;;;;;;;54.55;34.60;;;;;;;1.87;100.00;99371.44;1728922;82;25628;-57
2023/11/20 11:09:12;;;;;;;13.48;9.08;;;;;;;1.86;100.00;99373.31;1677508;83;25833;-55
2023/11/20 11:11:42;;;;;;;13.98;8.80;;;;;;;1.90;100.00;99373.56;1727357;83;27710;-56
2023/11/20 11:14:10;;;;;;;11.65;8.73;;;;;;;1.89;100.00;99374.66;1728405;83;25664;-55
2023/11/20 11:16:44;;;;;;;14.03;9.48;;;;;;;1.91;100.00;99372.50;1728880;82;25222;-54
2023/11/20 11:19:15;;;;;;;14.18;9.48;;;;;;;1.91;100.00;99371.17;1728247;83;25601;-53
2023/11/20 11:21:53;;;;;;;12.73;9.50;;;;;;;1.92;100.00;99375.95;1728853;83;25546;-55
2023/11/20 11:24:24;;;;;;;14.00;9.95;;;;;;;1.88;100.00;99369.05;1727750;83;27369;-52
2023/11/20 11:27:19;;;;;;;14.00;10.03;;;;;;;1.89;100.00;99368.50;1728519;83;25585;-54
2023/11/20 11:29:58;;;;;;;16.52;11.05;;;;;;;1.86;100.00;99369.31;1728621;82;25618;-54